createdAt,value
2023-02-15T00:01:49.648Z,4.45
2023-02-15T00:04:19.009Z,4.65
2023-02-15T00:06:45.804Z,4.78
2023-02-15T00:09:12.913Z,4.83
2023-02-15T00:11:52.426Z,4.85
2023-02-15T00:14:21.495Z,4.72
2023-02-15T00:16:49.350Z,4.82
2023-02-15T00:19:20.528Z,4.37
2023-02-15T00:21:48.515Z,4.12
2023-02-15T00:24:18.118Z,4.63
2023-02-15T00:26:45.080Z,4.61
2023-02-15T00:29:13.033Z,4.54
2023-02-15T00:31:39.875Z,4.57
2023-02-15T00:34:14.909Z,4.59
2023-02-15T00:36:42.119Z,4.61
2023-02-15T00:39:09.260Z,4.64
2023-02-15T00:41:35.937Z,4.60
2023-02-15T00:44:02.635Z,4.61
2023-02-15T00:46:30.156Z,4.49
2023-02-15T00:48:56.779Z,4.49
2023-02-15T00:51:23.508Z,4.43
2023-02-15T00:53:50.257Z,4.41
2023-02-15T00:56:16.868Z,4.26
2023-02-15T00:58:43.609Z,4.19
2023-02-15T01:01:13.642Z,4.02
2023-02-15T01:03:42.571Z,4.15
2023-02-15T01:06:13.561Z,4.27
2023-02-15T01:08:40.197Z,4.27
2023-02-15T01:11:12.098Z,4.22
2023-02-15T01:13:38.878Z,4.29
2023-02-15T01:16:06.169Z,4.24
2023-02-15T01:18:33.928Z,4.26
2023-02-15T01:21:00.501Z,4.15
2023-02-15T01:23:27.270Z,3.90
2023-02-15T01:25:53.831Z,3.86
2023-02-15T01:28:20.383Z,3.99
2023-02-15T01:30:47.085Z,4.00
2023-02-15T01:33:18.835Z,4.05
2023-02-15T01:35:47.122Z,3.77
2023-02-15T01:38:16.265Z,3.73
2023-02-15T01:40:43.203Z,3.62
2023-02-15T01:43:13.543Z,3.55
2023-02-15T01:45:40.509Z,3.53
2023-02-15T01:48:26.244Z,3.59
2023-02-15T01:50:57.460Z,3.65
2023-02-15T01:53:35.591Z,3.60
2023-02-15T01:56:07.392Z,3.50
2023-02-15T01:58:35.079Z,3.63
2023-02-15T02:01:04.820Z,3.67
2023-02-15T02:03:47.460Z,3.41
2023-02-15T02:06:14.265Z,3.40
2023-02-15T02:08:41.248Z,3.43
2023-02-15T02:11:13.852Z,3.54
2023-02-15T02:13:45.384Z,3.68
2023-02-15T02:16:17.349Z,3.93
2023-02-15T02:19:12.169Z,3.72
2023-02-15T02:22:05.411Z,3.57
2023-02-15T02:24:56.320Z,3.56
2023-02-15T02:27:35.160Z,3.76
2023-02-15T02:30:13.775Z,3.51
2023-02-15T02:33:22.114Z,3.55
2023-02-15T02:35:53.568Z,3.37
2023-02-15T02:38:33.653Z,3.51
2023-02-15T02:41:16.881Z,3.34
2023-02-15T02:44:04.009Z,3.21
2023-02-15T02:46:53.668Z,3.49
2023-02-15T02:49:39.195Z,3.72
2023-02-15T02:52:26.774Z,3.67
2023-02-15T02:54:54.798Z,3.67
2023-02-15T02:57:24.556Z,3.65
2023-02-15T02:59:52.975Z,3.56
2023-02-15T03:02:29.330Z,3.33
2023-02-15T03:05:04.503Z,3.11
2023-02-15T03:07:32.457Z,3.45
2023-02-15T03:10:02.837Z,3.45
2023-02-15T03:12:33.123Z,3.35
2023-02-15T03:15:06.683Z,3.34
2023-02-15T03:17:36.799Z,3.46
2023-02-15T03:20:15.715Z,3.21
2023-02-15T03:23:04.264Z,3.37
2023-02-15T03:25:39.664Z,3.44
2023-02-15T03:28:10.686Z,3.31
2023-02-15T03:30:39.180Z,3.37
2023-02-15T03:33:07.464Z,3.47
2023-02-15T03:35:54.071Z,3.52
2023-02-15T03:38:32.065Z,3.31
2023-02-15T03:41:12.613Z,3.49
2023-02-15T03:43:53.022Z,3.44
2023-02-15T03:46:33.136Z,3.50
2023-02-15T03:49:05.322Z,3.41
2023-02-15T03:51:36.260Z,3.45
2023-02-15T03:54:13.545Z,3.53
2023-02-15T03:57:03.259Z,3.36
2023-02-15T03:59:48.419Z,3.26
2023-02-15T04:02:26.273Z,2.93
2023-02-15T04:04:52.870Z,2.48
2023-02-15T04:07:19.656Z,2.73
2023-02-15T04:10:04.577Z,3.11
2023-02-15T04:12:32.009Z,3.20
2023-02-15T04:15:17.259Z,2.89
2023-02-15T04:17:44.026Z,3.03
2023-02-15T04:20:29.349Z,3.04
2023-02-15T04:23:14.214Z,3.09
2023-02-15T04:25:40.793Z,2.99
2023-02-15T04:28:08.646Z,2.97
2023-02-15T04:30:35.316Z,2.77
2023-02-15T04:33:01.850Z,2.69
2023-02-15T04:35:28.391Z,3.17
2023-02-15T04:37:54.987Z,3.23
2023-02-15T04:40:21.936Z,3.22
2023-02-15T04:42:50.056Z,3.11
2023-02-15T04:45:17.005Z,3.08
2023-02-15T04:47:44.230Z,2.97
2023-02-15T04:50:11.139Z,2.87
2023-02-15T04:52:37.756Z,2.88
2023-02-15T04:55:04.547Z,2.96
2023-02-15T04:57:31.087Z,2.81
2023-02-15T04:59:59.326Z,2.71
2023-02-15T05:02:25.949Z,2.32
2023-02-15T05:04:52.499Z,2.41
2023-02-15T05:07:21.160Z,2.51
2023-02-15T05:09:47.757Z,2.52
2023-02-15T05:12:14.331Z,1.77
2023-02-15T05:14:40.893Z,2.05
2023-02-15T05:17:07.452Z,2.64
2023-02-15T05:19:34.100Z,2.54
2023-02-15T05:22:00.654Z,2.12
2023-02-15T05:24:59.552Z,2.49
2023-02-15T05:27:44.408Z,2.63
2023-02-15T05:30:12.527Z,2.14
2023-02-15T05:32:40.093Z,2.64
2023-02-15T05:35:08.561Z,2.72
2023-02-15T05:37:35.128Z,2.73
2023-02-15T05:40:01.749Z,2.62
2023-02-15T05:42:28.344Z,2.41
2023-02-15T05:44:54.868Z,2.32
2023-02-15T05:47:21.538Z,2.30
2023-02-15T05:49:48.161Z,2.24
2023-02-15T05:52:14.727Z,2.18
2023-02-15T05:54:41.269Z,2.22
2023-02-15T05:57:08.070Z,2.10
2023-02-15T05:59:34.846Z,2.09
2023-02-15T06:02:01.607Z,2.30
2023-02-15T06:04:28.281Z,1.94
2023-02-15T06:06:54.835Z,2.01
2023-02-15T06:09:21.433Z,2.02
2023-02-15T06:11:48.051Z,1.58
2023-02-15T06:14:14.724Z,1.89
2023-02-15T06:16:41.407Z,1.67
2023-02-15T06:19:08.062Z,1.62
2023-02-15T06:21:34.595Z,1.88
2023-02-15T06:24:01.220Z,1.96
2023-02-15T06:26:27.777Z,2.07
2023-02-15T06:28:54.515Z,1.96
2023-02-15T06:31:21.195Z,2.17
2023-02-15T06:33:47.873Z,2.49
2023-02-15T06:36:14.480Z,2.41
2023-02-15T06:38:41.103Z,2.44
2023-02-15T06:41:07.712Z,2.37
2023-02-15T06:43:35.105Z,2.37
2023-02-15T06:46:02.098Z,2.24
2023-02-15T06:48:29.013Z,2.36
2023-02-15T06:50:55.559Z,1.83
2023-02-15T06:53:22.100Z,1.17
2023-02-15T06:55:48.650Z,1.86
2023-02-15T06:58:15.240Z,1.74
2023-02-15T07:00:41.895Z,1.50
2023-02-15T07:03:08.978Z,1.66
2023-02-15T07:05:35.791Z,1.37
2023-02-15T07:08:02.451Z,1.21
2023-02-15T07:10:29.325Z,1.10
2023-02-15T07:12:56.680Z,1.35
2023-02-15T07:15:23.472Z,1.70
2023-02-15T07:17:50.435Z,1.71
2023-02-15T07:20:22.466Z,1.67
2023-02-15T07:22:49.907Z,1.76
2023-02-15T07:25:17.030Z,1.71
2023-02-15T07:27:45.071Z,1.56
2023-02-15T07:30:14.445Z,1.48
2023-02-15T07:33:02.858Z,1.51
2023-02-15T07:35:31.270Z,1.98
2023-02-15T07:37:57.903Z,2.37
2023-02-15T07:40:24.547Z,2.69
2023-02-15T07:42:54.194Z,2.66
2023-02-15T07:45:22.036Z,1.90
2023-02-15T07:47:48.658Z,2.03
2023-02-15T07:50:15.325Z,1.78
2023-02-15T07:52:42.011Z,2.13
2023-02-15T07:55:09.771Z,2.35
2023-02-15T07:57:36.511Z,2.45
2023-02-15T08:00:04.341Z,2.44
2023-02-15T08:02:39.378Z,2.32
2023-02-15T08:05:07.089Z,2.37
2023-02-15T08:07:33.715Z,1.91
2023-02-15T08:10:00.440Z,2.20
2023-02-15T08:12:27.717Z,2.21
2023-02-15T08:14:54.257Z,2.37
2023-02-15T08:17:20.817Z,2.40
2023-02-15T08:19:47.756Z,2.65
2023-02-15T08:22:15.246Z,2.62
2023-02-15T08:24:42.474Z,2.79
2023-02-15T08:27:11.955Z,2.70
2023-02-15T08:29:39.283Z,2.72
2023-02-15T08:32:11.297Z,2.74
2023-02-15T08:34:40.341Z,3.03
2023-02-15T08:37:07.413Z,2.86
2023-02-15T08:39:34.546Z,2.85
2023-02-15T08:42:01.443Z,2.89
2023-02-15T08:44:28.122Z,3.01
2023-02-15T08:46:55.652Z,3.34
2023-02-15T08:49:22.954Z,3.40
2023-02-15T08:51:50.195Z,3.52
2023-02-15T08:54:19.698Z,3.55
2023-02-15T08:56:46.699Z,3.74
2023-02-15T08:59:16.374Z,3.81
2023-02-15T09:01:43.549Z,3.97
2023-02-15T09:04:10.756Z,4.08
2023-02-15T09:06:39.264Z,4.15
2023-02-15T09:09:06.608Z,4.31
2023-02-15T09:11:41.933Z,4.38
2023-02-15T09:14:14.451Z,4.47
2023-02-15T09:16:42.548Z,4.43
2023-02-15T09:19:09.530Z,4.40
2023-02-15T09:21:37.798Z,4.82
2023-02-15T09:24:13.069Z,4.89
2023-02-15T09:26:42.932Z,4.96
2023-02-15T09:29:11.706Z,5.30
2023-02-15T09:31:42.287Z,5.52
2023-02-15T09:34:09.187Z,5.67
2023-02-15T09:36:37.406Z,5.80
2023-02-15T09:39:13.074Z,5.98
2023-02-15T09:42:19.146Z,6.17
2023-02-15T09:45:07.898Z,6.15
2023-02-15T09:48:10.626Z,6.22
2023-02-15T09:50:55.405Z,6.29
2023-02-15T09:53:46.418Z,6.35
2023-02-15T09:56:31.109Z,6.90
2023-02-15T09:59:12.663Z,7.05
2023-02-15T10:02:00.044Z,7.16
2023-02-15T10:05:06.709Z,7.16
2023-02-15T10:07:45.116Z,7.23
2023-02-15T10:10:26.396Z,7.45
2023-02-15T10:13:07.212Z,7.44
2023-02-15T10:15:59.017Z,7.38
2023-02-15T10:18:53.984Z,7.33
2023-02-15T10:21:47.412Z,7.56
2023-02-15T10:24:25.895Z,7.79
2023-02-15T10:26:59.557Z,8.00
2023-02-15T10:29:34.025Z,8.21
2023-02-15T10:32:17.297Z,8.25
2023-02-15T10:35:09.047Z,8.30
2023-02-15T10:38:00.394Z,8.50
2023-02-15T10:40:32.828Z,8.87
2023-02-15T10:43:35.594Z,8.90
2023-02-15T10:46:20.434Z,9.55
2023-02-15T10:49:01.771Z,9.47
2023-02-15T10:51:48.068Z,9.62
2023-02-15T10:54:27.334Z,9.47
2023-02-15T10:57:01.589Z,9.80
2023-02-15T11:00:06.071Z,10.13
2023-02-15T11:03:13.028Z,10.10
2023-02-15T11:05:46.399Z,10.03
2023-02-15T11:08:13.168Z,10.50
2023-02-15T11:10:47.310Z,10.94
2023-02-15T11:13:19.635Z,10.99
2023-02-15T11:15:58.539Z,11.10
2023-02-15T11:18:35.333Z,10.72
2023-02-15T11:21:14.693Z,10.93
2023-02-15T11:23:45.666Z,11.03
2023-02-15T11:26:38.524Z,10.93
2023-02-15T11:29:21.862Z,11.16
2023-02-15T11:31:57.730Z,10.99
2023-02-15T11:34:38.941Z,11.17
2023-02-15T11:37:11.271Z,11.39
2023-02-15T11:39:38.418Z,11.50
2023-02-15T11:42:15.089Z,11.57
2023-02-15T11:45:00.237Z,11.69
2023-02-15T11:47:26.917Z,11.82
2023-02-15T11:49:53.459Z,12.02
2023-02-15T11:52:20.141Z,11.91
2023-02-15T11:54:51.348Z,12.08
2023-02-15T11:57:24.205Z,12.20
2023-02-15T12:00:08.544Z,12.37
2023-02-15T12:02:38.421Z,12.47
2023-02-15T12:05:11.817Z,12.56
2023-02-15T12:08:01.719Z,12.92
2023-02-15T12:10:38.880Z,13.16
2023-02-15T12:13:19.113Z,12.98
2023-02-15T12:15:55.099Z,13.07
2023-02-15T12:18:45.297Z,13.07
2023-02-15T12:21:15.449Z,13.19
2023-02-15T12:23:51.326Z,13.21
2023-02-15T12:26:33.517Z,13.03
2023-02-15T12:29:03.194Z,13.10
2023-02-15T12:31:35.437Z,13.27
2023-02-15T12:34:10.492Z,13.45
2023-02-15T12:36:45.474Z,13.31
2023-02-15T12:39:14.941Z,13.59
2023-02-15T12:42:00.140Z,13.49
2023-02-15T12:44:30.082Z,13.73
2023-02-15T12:46:56.969Z,13.89
2023-02-15T12:49:23.524Z,13.94
2023-02-15T12:51:59.537Z,13.70
2023-02-15T12:54:31.027Z,13.71
2023-02-15T12:57:00.786Z,13.95
2023-02-15T12:59:27.627Z,13.86
2023-02-15T13:01:54.900Z,13.87
2023-02-15T13:04:29.454Z,13.94
2023-02-15T13:07:03.740Z,13.82
2023-02-15T13:09:33.299Z,13.90
2023-02-15T13:12:22.861Z,13.93
2023-02-15T13:14:52.674Z,13.80
2023-02-15T13:17:25.782Z,13.98
2023-02-15T13:19:55.364Z,13.96
2023-02-15T13:22:34.016Z,13.93
2023-02-15T13:25:10.985Z,14.18
2023-02-15T13:27:42.428Z,14.22
2023-02-15T13:30:23.043Z,13.99
2023-02-15T13:32:52.349Z,14.60
2023-02-15T13:35:19.890Z,14.68
2023-02-15T13:38:07.505Z,14.59
2023-02-15T13:40:40.047Z,14.45
2023-02-15T13:43:21.896Z,14.48
2023-02-15T13:45:58.319Z,14.46
2023-02-15T13:48:50.768Z,14.78
2023-02-15T13:51:42.823Z,14.86
2023-02-15T13:54:21.302Z,14.90
2023-02-15T13:57:05.066Z,14.77
2023-02-15T13:59:57.094Z,14.87
2023-02-15T14:02:26.950Z,14.67
2023-02-15T14:04:53.420Z,14.29
2023-02-15T14:07:40.839Z,14.81
2023-02-15T14:10:10.254Z,14.66
2023-02-15T14:13:15.627Z,14.53
2023-02-15T14:15:48.081Z,14.60
2023-02-15T14:18:39.710Z,14.23
2023-02-15T14:21:32.750Z,14.24
2023-02-15T14:24:23.993Z,14.37
2023-02-15T14:27:08.856Z,14.28
2023-02-15T14:29:50.415Z,14.15
2023-02-15T14:32:36.598Z,14.29
2023-02-15T14:35:18.293Z,14.22
2023-02-15T14:38:00.018Z,14.39
2023-02-15T14:41:04.915Z,14.66
2023-02-15T14:43:50.545Z,14.24
2023-02-15T14:46:24.683Z,14.13
2023-02-15T14:49:11.295Z,14.25
2023-02-15T14:51:44.049Z,14.22
2023-02-15T14:54:33.645Z,14.04
2023-02-15T14:57:02.944Z,14.12
2023-02-15T14:59:51.216Z,14.43
2023-02-15T15:02:48.374Z,14.35
2023-02-15T15:05:20.950Z,14.43
2023-02-15T15:07:50.253Z,14.49
2023-02-15T15:10:17.010Z,14.05
2023-02-15T15:12:54.668Z,13.90
2023-02-15T15:15:33.244Z,14.05
2023-02-15T15:18:06.713Z,14.33
2023-02-15T15:20:57.036Z,13.97
2023-02-15T15:23:23.549Z,14.01
2023-02-15T15:25:50.117Z,14.20
2023-02-15T15:28:39.572Z,14.24
2023-02-15T15:31:21.269Z,14.52
2023-02-15T15:34:15.302Z,14.24
2023-02-15T15:37:00.716Z,14.28
2023-02-15T15:39:50.636Z,13.95
2023-02-15T15:42:45.959Z,14.06
2023-02-15T15:45:15.132Z,13.84
2023-02-15T15:48:19.246Z,13.91
2023-02-15T15:50:47.363Z,13.95
2023-02-15T15:53:22.547Z,13.73
2023-02-15T15:55:56.480Z,13.70
2023-02-15T15:58:25.130Z,13.73
2023-02-15T16:00:56.978Z,13.67
2023-02-15T16:03:25.977Z,13.55
2023-02-15T16:05:56.476Z,13.60
2023-02-15T16:08:37.702Z,14.13
2023-02-15T16:11:14.684Z,13.60
2023-02-15T16:13:42.814Z,13.41
2023-02-15T16:16:12.333Z,13.17
2023-02-15T16:18:43.582Z,13.35
2023-02-15T16:21:21.849Z,13.16
2023-02-15T16:24:04.522Z,13.50
2023-02-15T16:27:02.976Z,13.06
2023-02-15T16:29:32.356Z,12.94
2023-02-15T16:32:05.209Z,13.15
2023-02-15T16:34:33.671Z,13.15
2023-02-15T16:37:16.963Z,12.89
2023-02-15T16:39:44.984Z,12.80
2023-02-15T16:42:14.921Z,12.84
2023-02-15T16:44:41.953Z,12.88
2023-02-15T16:47:36.488Z,12.92
2023-02-15T16:50:05.485Z,12.82
2023-02-15T16:52:32.584Z,12.66
2023-02-15T16:55:01.836Z,12.66
2023-02-15T16:57:36.277Z,12.50
2023-02-15T17:00:07.038Z,12.49
2023-02-15T17:02:55.182Z,12.19
2023-02-15T17:05:22.800Z,12.34
2023-02-15T17:08:03.842Z,12.22
2023-02-15T17:10:37.298Z,12.26
2023-02-15T17:13:11.701Z,12.34
2023-02-15T17:15:43.330Z,12.19
2023-02-15T17:18:19.282Z,12.10
2023-02-15T17:20:47.859Z,11.86
2023-02-15T17:23:31.488Z,11.95
2023-02-15T17:25:59.619Z,11.91
2023-02-15T17:28:32.019Z,11.63
2023-02-15T17:30:59.537Z,11.51
2023-02-15T17:33:35.368Z,11.29
2023-02-15T17:36:11.226Z,11.11
2023-02-15T17:38:40.267Z,10.82
2023-02-15T17:41:06.967Z,10.85
2023-02-15T17:43:33.575Z,10.88
2023-02-15T17:46:00.286Z,10.93
2023-02-15T17:48:32.513Z,11.22
2023-02-15T17:51:02.552Z,10.76
2023-02-15T17:53:29.991Z,10.78
2023-02-15T17:55:56.528Z,10.99
2023-02-15T17:58:23.799Z,11.13
2023-02-15T18:01:13.372Z,10.46
2023-02-15T18:04:05.541Z,9.60
2023-02-15T18:06:51.203Z,9.31
2023-02-15T18:09:38.133Z,9.46
2023-02-15T18:12:20.020Z,9.13
2023-02-15T18:14:46.579Z,9.28
2023-02-15T18:17:14.899Z,9.48
2023-02-15T18:19:44.281Z,8.77
2023-02-15T18:22:19.357Z,9.45
2023-02-15T18:24:47.496Z,9.35
2023-02-15T18:27:15.584Z,9.17
2023-02-15T18:29:43.538Z,9.38
2023-02-15T18:32:34.676Z,9.31
2023-02-15T18:35:02.892Z,9.70
2023-02-15T18:37:33.123Z,9.62
2023-02-15T18:40:01.114Z,9.09
2023-02-15T18:42:31.504Z,8.71
2023-02-15T18:45:02.849Z,8.98
2023-02-15T18:47:29.588Z,8.85
2023-02-15T18:49:56.288Z,8.71
2023-02-15T18:52:27.346Z,8.56
2023-02-15T18:54:57.863Z,8.60
2023-02-15T18:57:24.493Z,9.07
2023-02-15T18:59:51.113Z,9.49
2023-02-15T19:02:19.702Z,9.09
2023-02-15T19:04:46.792Z,8.84
2023-02-15T19:07:24.560Z,8.66
2023-02-15T19:09:55.405Z,8.74
2023-02-15T19:12:22.271Z,9.07
2023-02-15T19:14:51.163Z,8.97
2023-02-15T19:17:20.239Z,8.99
2023-02-15T19:19:47.603Z,8.74
2023-02-15T19:22:24.922Z,8.88
2023-02-15T19:24:52.316Z,8.91
2023-02-15T19:27:37.930Z,8.57
2023-02-15T19:30:15.145Z,8.75
2023-02-15T19:32:41.812Z,8.79
2023-02-15T19:35:16.897Z,8.46
2023-02-15T19:37:46.841Z,8.47
2023-02-15T19:40:30.237Z,8.64
2023-02-15T19:42:57.231Z,8.62
2023-02-15T19:45:26.629Z,8.47
2023-02-15T19:47:55.104Z,8.39
2023-02-15T19:50:25.169Z,8.31
2023-02-15T19:52:52.379Z,8.18
2023-02-15T19:55:23.159Z,7.90
2023-02-15T19:57:52.110Z,7.91
2023-02-15T20:00:22.395Z,7.96
2023-02-15T20:02:49.374Z,8.12
2023-02-15T20:05:16.299Z,7.92
2023-02-15T20:07:48.959Z,7.73
2023-02-15T20:10:21.333Z,7.78
2023-02-15T20:12:48.321Z,7.80
2023-02-15T20:15:29.416Z,7.90
2023-02-15T20:17:57.350Z,7.70
2023-02-15T20:20:31.730Z,7.37
2023-02-15T20:22:58.405Z,7.55
2023-02-15T20:25:27.771Z,7.54
2023-02-15T20:27:54.577Z,7.48
2023-02-15T20:30:24.239Z,7.61
2023-02-15T20:32:50.894Z,7.47
2023-02-15T20:35:19.861Z,7.56
2023-02-15T20:38:00.316Z,7.52
2023-02-15T20:40:32.728Z,7.42
2023-02-15T20:42:59.654Z,6.75
2023-02-15T20:45:30.202Z,6.51
2023-02-15T20:47:58.353Z,7.30
2023-02-15T20:50:28.521Z,7.36
2023-02-15T20:52:57.132Z,7.45
2023-02-15T20:55:34.205Z,7.40
2023-02-15T20:58:00.831Z,7.24
2023-02-15T21:00:31.532Z,6.43
2023-02-15T21:03:00.467Z,6.73
2023-02-15T21:05:30.709Z,6.75
2023-02-15T21:07:57.402Z,6.43
2023-02-15T21:10:30.210Z,6.21
2023-02-15T21:12:59.256Z,5.44
2023-02-15T21:15:34.772Z,5.28
2023-02-15T21:18:07.585Z,5.10
2023-02-15T21:20:35.814Z,4.88
2023-02-15T21:23:04.828Z,4.94
2023-02-15T21:25:36.276Z,4.87
2023-02-15T21:28:09.639Z,5.01
2023-02-15T21:30:36.219Z,5.34
2023-02-15T21:33:02.812Z,5.18
2023-02-15T21:35:29.394Z,5.33
2023-02-15T21:37:56.439Z,5.77
2023-02-15T21:40:29.249Z,5.43
2023-02-15T21:43:15.282Z,5.77
2023-02-15T21:46:00.780Z,5.95
2023-02-15T21:48:27.776Z,5.02
2023-02-15T21:51:13.375Z,5.04
2023-02-15T21:53:43.098Z,5.03
2023-02-15T21:56:15.535Z,5.17
2023-02-15T21:58:42.417Z,5.09
2023-02-15T22:01:28.401Z,5.01
2023-02-15T22:03:58.016Z,4.80
2023-02-15T22:06:25.433Z,4.69
2023-02-15T22:08:51.994Z,4.92
2023-02-15T22:11:22.009Z,4.73
2023-02-15T22:13:50.340Z,4.79
2023-02-15T22:16:21.861Z,4.78
2023-02-15T22:18:48.684Z,4.79
2023-02-15T22:21:18.136Z,4.74
2023-02-15T22:23:44.696Z,4.94
2023-02-15T22:26:18.341Z,5.53
2023-02-15T22:28:44.888Z,6.04
2023-02-15T22:31:14.287Z,6.12
2023-02-15T22:33:41.097Z,6.17
2023-02-15T22:36:22.852Z,6.36
2023-02-15T22:38:49.328Z,6.35
2023-02-15T22:41:16.968Z,5.68
2023-02-15T22:43:45.200Z,5.48
2023-02-15T22:46:17.792Z,5.89
2023-02-15T22:48:47.560Z,5.69
2023-02-15T22:51:20.239Z,5.78
2023-02-15T22:53:49.530Z,6.17
2023-02-15T22:56:19.869Z,6.02
2023-02-15T22:58:49.473Z,5.88
2023-02-15T23:01:26.243Z,6.42
2023-02-15T23:03:52.862Z,6.34
2023-02-15T23:06:19.427Z,6.20
2023-02-15T23:08:46.101Z,6.15
2023-02-15T23:11:12.816Z,6.03
2023-02-15T23:13:39.425Z,5.91
2023-02-15T23:16:07.793Z,6.04
2023-02-15T23:18:37.833Z,5.94
2023-02-15T23:21:21.615Z,5.50
2023-02-15T23:23:51.152Z,5.70
2023-02-15T23:26:35.804Z,5.60
2023-02-15T23:29:03.778Z,5.50
2023-02-15T23:31:33.089Z,5.69
2023-02-15T23:34:01.503Z,5.48
2023-02-15T23:36:27.979Z,5.29
2023-02-15T23:38:56.986Z,5.61
2023-02-15T23:41:28.340Z,5.27
2023-02-15T23:44:01.140Z,4.63
2023-02-15T23:46:40.668Z,4.55
2023-02-15T23:49:17.264Z,4.39
2023-02-15T23:51:52.810Z,4.05
2023-02-15T23:54:21.975Z,4.36
2023-02-15T23:56:53.077Z,4.50
2023-02-15T23:59:28.440Z,4.49
